Legal notices.

Publisher

This website is published by: Société des Ormes
Headquarters: Aérodrome de Reims-Prunay 51360 Prunay, Champagne-Ardenne, France
Port.: 06 73 72 56 28
Contact

Credits

Design and production: Cochet Concept
Photos: Société des Ormes

Reproduction rights

The information presented on this site is public. The reproduction of information from this site, with the exception of the iconography, is authorised on condition that the source is mentioned and a link is created on the reference page(s). The information on this site may not be used for commercial or advertising purposes.

Personal data

Where data on this site is of a nominative nature, users must use it in accordance with the regulations in force and the recommendations of the Commission national de l’informatique et des libertés (CNIL). The information used must only be for personal, associative or professional purposes, any distribution or use for commercial or advertising purposes being excluded.

Consumption of alcohol

Alcohol abuse is dangerous for your health, consume in moderation.

METAR:

LFQA 011330Z AUTO 26012KT 9999 FEW032 BKN038 OVC045 09/03 Q1026


live view of the airfield
invoicing legal Notice privacy policy
Cochet Concept
cx